Time;durP1;ratioP1;P1;durP2;ratioP2;P2;SDS_P1;SDS_P2;PMS_P1;PMS_P2;Temp;Humidity;BMP_temperature;BMP_pressure;BME280_temperature;BME280_humidity;BME280_pressure;Samples;Min_cycle;Max_cycle;Signal;HPM_P1;HPM_P2
2022/07/06 00:01:03;;;;;;;5.20;3.58;;;;;;;;;;5033434;28;20036;-74
2022/07/06 00:03:29;;;;;;;5.50;3.20;;;;;;;;;;5033460;28;20026;-74
2022/07/06 00:05:55;;;;;;;6.97;3.58;;;;;;;;;;5036377;28;20034;-82
2022/07/06 00:08:21;;;;;;;6.00;3.63;;;;;;;;;;5033054;28;20426;-82
2022/07/06 00:10:47;;;;;;;5.47;3.58;;;;;;;;;;5033547;28;20092;-72
2022/07/06 00:13:13;;;;;;;4.68;3.40;;;;;;;;;;5033934;28;20108;-81
2022/07/06 00:15:39;;;;;;;7.10;3.70;;;;;;;;;;5035992;28;20017;-80
2022/07/06 00:18:05;;;;;;;9.23;3.83;;;;;;;;;;5033156;28;20033;-79
2022/07/06 00:20:31;;;;;;;5.93;3.58;;;;;;;;;;5015230;28;20037;-72
2022/07/06 00:22:57;;;;;;;7.68;3.80;;;;;;;;;;5033050;28;20433;-71
2022/07/06 00:25:23;;;;;;;6.53;3.80;;;;;;;;;;5031534;28;20421;-76
2022/07/06 00:27:50;;;;;;;4.45;3.40;;;;;;;;;;5025100;28;20422;-82
2022/07/06 00:30:16;;;;;;;4.10;3.28;;;;;;;;;;5034289;28;20482;-82
2022/07/06 00:32:42;;;;;;;5.07;3.40;;;;;;;;;;5014446;28;20402;-83
2022/07/06 00:35:08;;;;;;;8.00;3.47;;;;;;;;;;5031539;28;20431;-71
2022/07/06 00:37:34;;;;;;;6.22;3.42;;;;;;;;;;5030644;28;20113;-82
2022/07/06 00:40:00;;;;;;;4.70;3.35;;;;;;;;;;5040885;28;20029;-71
2022/07/06 00:42:26;;;;;;;4.03;3.17;;;;;;;;;;5032253;28;20075;-71
2022/07/06 00:44:52;;;;;;;8.65;3.92;;;;;;;;;;5033857;28;20017;-81
2022/07/06 00:47:18;;;;;;;8.20;3.70;;;;;;;;;;5031792;28;20025;-82
2022/07/06 00:52:29;;;;;;;6.97;3.60;;;;;;;;;;5032398;28;20577;-71
2022/07/06 00:54:55;;;;;;;5.90;3.50;;;;;;;;;;5033771;28;20048;-81
2022/07/06 00:57:21;;;;;;;8.02;3.47;;;;;;;;;;5044054;28;20029;-80
2022/07/06 00:59:48;;;;;;;7.88;3.70;;;;;;;;;;5032555;28;20509;-71
2022/07/06 01:02:14;;;;;;;4.82;3.22;;;;;;;;;;5031137;28;20059;-82
2022/07/06 01:04:40;;;;;;;4.03;3.60;;;;;;;;;;5032013;28;20064;-81
2022/07/06 01:07:06;;;;;;;5.32;3.63;;;;;;;;;;5041657;28;20033;-81
2022/07/06 01:09:34;;;;;;;3.67;3.30;;;;;;;;;;5031788;28;20028;-75
2022/07/06 01:12:00;;;;;;;4.43;3.40;;;;;;;;;;5032720;28;20391;-81
2022/07/06 01:14:27;;;;;;;6.93;3.83;;;;;;;;;;5033755;28;20078;-79
2022/07/06 01:16:53;;;;;;;4.35;3.33;;;;;;;;;;5037337;28;20134;-80
2022/07/06 01:19:19;;;;;;;4.43;3.08;;;;;;;;;;5031821;28;20474;-81
2022/07/06 01:21:45;;;;;;;5.60;3.10;;;;;;;;;;5032393;28;20033;-82
2022/07/06 01:24:11;;;;;;;4.28;3.50;;;;;;;;;;5032421;28;20021;-78
2022/07/06 01:26:37;;;;;;;3.80;3.20;;;;;;;;;;5030029;28;20037;-74
2022/07/06 01:29:03;;;;;;;4.45;3.40;;;;;;;;;;5031714;28;20474;-75
2022/07/06 01:31:29;;;;;;;5.53;3.70;;;;;;;;;;5031612;28;20158;-71
2022/07/06 01:33:56;;;;;;;5.50;3.30;;;;;;;;;;5030765;28;20083;-79
2022/07/06 01:36:23;;;;;;;5.18;3.45;;;;;;;;;;5032051;28;20472;-82
2022/07/06 01:38:49;;;;;;;7.30;3.40;;;;;;;;;;5032241;28;20075;-82
2022/07/06 01:41:15;;;;;;;5.47;3.63;;;;;;;;;;5030709;28;20038;-80
2022/07/06 01:43:41;;;;;;;4.88;3.60;;;;;;;;;;5032146;28;20421;-82
2022/07/06 01:46:07;;;;;;;6.28;3.38;;;;;;;;;;5031477;28;20033;-72
2022/07/06 01:48:34;;;;;;;5.20;3.40;;;;;;;;;;5035095;28;20443;-82
2022/07/06 01:51:00;;;;;;;4.78;3.60;;;;;;;;;;5041844;28;20025;-73
2022/07/06 01:53:26;;;;;;;5.30;3.45;;;;;;;;;;5016692;28;20796;-72
2022/07/06 01:55:52;;;;;;;6.28;3.70;;;;;;;;;;5036811;28;20029;-82
2022/07/06 01:58:18;;;;;;;6.78;3.50;;;;;;;;;;5031990;28;20395;-81
2022/07/06 02:01:20;;;;;;;;;;;;;;;;;;;;;
2022/07/06 02:03:47;;;;;;;3.83;3.40;;;;;;;;;;5030781;28;20029;-71
2022/07/06 02:06:13;;;;;;;6.32;3.58;;;;;;;;;;5031479;28;20022;-78
2022/07/06 02:08:40;;;;;;;4.90;3.58;;;;;;;;;;5031487;28;20037;-82
2022/07/06 02:11:08;;;;;;;4.68;3.70;;;;;;;;;;5040519;28;20026;-82
2022/07/06 02:13:34;;;;;;;4.38;3.50;;;;;;;;;;5021609;28;20567;-71
2022/07/06 02:16:00;;;;;;;4.93;3.42;;;;;;;;;;5031220;28;20029;-71
2022/07/06 02:18:27;;;;;;;6.07;3.70;;;;;;;;;;5031676;28;20108;-79
2022/07/06 02:20:53;;;;;;;6.03;3.72;;;;;;;;;;5037036;28;20470;-81
2022/07/06 02:23:22;;;;;;;4.97;3.75;;;;;;;;;;5037748;28;20034;-75
2022/07/06 02:25:48;;;;;;;4.95;3.75;;;;;;;;;;5038674;28;20084;-79
2022/07/06 02:28:14;;;;;;;4.80;3.88;;;;;;;;;;5032186;28;20146;-82
2022/07/06 02:30:40;;;;;;;4.13;3.70;;;;;;;;;;5032065;28;20021;-71
2022/07/06 02:33:06;;;;;;;4.80;3.78;;;;;;;;;;5033392;28;20028;-81
2022/07/06 02:35:32;;;;;;;5.57;3.90;;;;;;;;;;5031248;28;20029;-77
2022/07/06 02:37:58;;;;;;;8.70;4.10;;;;;;;;;;5031839;28;20060;-71
2022/07/06 02:40:24;;;;;;;5.90;3.88;;;;;;;;;;5031501;28;20030;-81
2022/07/06 02:42:50;;;;;;;4.90;3.80;;;;;;;;;;5031757;28;20026;-74
2022/07/06 02:45:16;;;;;;;5.30;4.10;;;;;;;;;;5030261;28;20025;-81
2022/07/06 02:47:45;;;;;;;7.28;4.10;;;;;;;;;;5031945;28;20459;-81
2022/07/06 02:50:11;;;;;;;12.18;5.45;;;;;;;;;;5035382;28;20109;-71
2022/07/06 02:52:41;;;;;;;4.80;4.10;;;;;;;;;;5035437;28;20049;-82
2022/07/06 02:55:08;;;;;;;5.85;3.88;;;;;;;;;;5033360;28;20056;-80
2022/07/06 02:57:34;;;;;;;5.55;3.85;;;;;;;;;;5038123;28;20021;-81
2022/07/06 03:00:00;;;;;;;4.75;3.70;;;;;;;;;;5035119;28;20445;-82
2022/07/06 03:02:27;;;;;;;5.55;3.90;;;;;;;;;;5035041;28;20485;-82
2022/07/06 03:05:29;;;;;;;6.53;3.83;;;;;;;;;;5003373;28;20029;-77
2022/07/06 03:07:55;;;;;;;4.75;3.90;;;;;;;;;;4954231;28;20535;-71
2022/07/06 03:10:21;;;;;;;7.20;4.32;;;;;;;;;;4954126;29;20043;-79
2022/07/06 03:12:47;;;;;;;4.85;3.90;;;;;;;;;;4954257;28;20203;-73
2022/07/06 03:15:13;;;;;;;6.97;4.30;;;;;;;;;;4953739;28;20027;-76
2022/07/06 03:17:39;;;;;;;5.43;4.28;;;;;;;;;;4951566;28;20098;-80
2022/07/06 03:20:06;;;;;;;6.20;4.35;;;;;;;;;;4954485;28;20027;-71
2022/07/06 03:22:32;;;;;;;6.32;4.30;;;;;;;;;;4947221;28;20046;-81
2022/07/06 03:24:58;;;;;;;4.68;4.18;;;;;;;;;;4954414;29;20032;-72
2022/07/06 03:27:24;;;;;;;5.05;4.30;;;;;;;;;;4953016;28;20059;-81
2022/07/06 03:29:50;;;;;;;6.00;4.57;;;;;;;;;;4953898;28;20039;-81
2022/07/06 03:32:16;;;;;;;5.85;4.10;;;;;;;;;;4950687;29;20035;-78
2022/07/06 03:34:42;;;;;;;5.20;4.45;;;;;;;;;;4954507;29;20042;-81
2022/07/06 03:37:08;;;;;;;5.28;4.53;;;;;;;;;;4949429;28;20151;-71
2022/07/06 03:39:34;;;;;;;6.53;4.93;;;;;;;;;;4952974;28;20035;-81
2022/07/06 03:42:00;;;;;;;6.80;4.63;;;;;;;;;;4949511;28;20039;-71
2022/07/06 03:44:26;;;;;;;5.72;4.40;;;;;;;;;;5026796;28;20503;-72
2022/07/06 03:46:55;;;;;;;6.03;4.80;;;;;;;;;;5026841;28;20044;-78
2022/07/06 03:49:26;;;;;;;9.57;4.55;;;;;;;;;;5033105;28;20028;-78
2022/07/06 03:51:52;;;;;;;5.85;4.70;;;;;;;;;;5030880;28;20045;-79
2022/07/06 03:54:18;;;;;;;6.13;4.65;;;;;;;;;;5016362;28;20502;-80
2022/07/06 03:56:44;;;;;;;5.88;4.68;;;;;;;;;;5032984;28;20609;-78
2022/07/06 03:59:14;;;;;;;8.25;4.57;;;;;;;;;;5019135;28;20490;-76
2022/07/06 04:01:40;;;;;;;9.05;4.63;;;;;;;;;;5014440;28;20084;-76
2022/07/06 04:04:06;;;;;;;7.53;5.07;;;;;;;;;;5035460;28;20507;-74
2022/07/06 04:06:34;;;;;;;5.57;4.78;;;;;;;;;;5034337;28;20029;-76
2022/07/06 04:09:02;;;;;;;9.00;5.13;;;;;;;;;;5033129;28;20025;-76
2022/07/06 04:11:29;;;;;;;6.80;4.50;;;;;;;;;;5033468;28;20028;-75
2022/07/06 04:13:55;;;;;;;7.07;4.90;;;;;;;;;;5033655;28;20024;-75
2022/07/06 04:16:21;;;;;;;6.97;4.90;;;;;;;;;;5033248;28;20028;-74
2022/07/06 04:18:47;;;;;;;6.60;4.90;;;;;;;;;;5032142;28;20031;-74
2022/07/06 04:21:13;;;;;;;6.40;5.28;;;;;;;;;;5028524;28;20112;-76
2022/07/06 04:23:58;;;;;;;9.35;5.40;;;;;;;;;;5026459;28;20014;-70
2022/07/06 04:26:26;;;;;;;6.70;5.00;;;;;;;;;;5010475;28;20025;-78
2022/07/06 04:28:55;;;;;;;6.78;4.80;;;;;;;;;;5029064;28;20047;-76
2022/07/06 04:31:21;;;;;;;7.70;4.93;;;;;;;;;;5014180;28;20079;-75
2022/07/06 04:33:47;;;;;;;5.15;4.65;;;;;;;;;;5043646;28;20033;-79
2022/07/06 04:36:13;;;;;;;7.72;4.75;;;;;;;;;;5032237;28;20029;-79
2022/07/06 04:38:39;;;;;;;6.85;4.95;;;;;;;;;;5032062;28;20018;-75
2022/07/06 04:41:05;;;;;;;5.35;4.75;;;;;;;;;;5030135;28;20380;-75
2022/07/06 04:43:31;;;;;;;5.03;4.53;;;;;;;;;;5030676;28;20545;-74
2022/07/06 04:45:58;;;;;;;7.15;4.63;;;;;;;;;;5033187;28;20037;-76
2022/07/06 04:48:24;;;;;;;7.40;4.57;;;;;;;;;;5032678;28;20020;-75
2022/07/06 04:50:50;;;;;;;5.57;4.95;;;;;;;;;;5031598;28;20037;-70
2022/07/06 04:53:16;;;;;;;5.95;4.55;;;;;;;;;;5032220;28;20088;-73
2022/07/06 04:55:42;;;;;;;5.00;4.47;;;;;;;;;;5033805;28;20049;-73
2022/07/06 04:58:08;;;;;;;5.63;4.38;;;;;;;;;;5016400;28;20022;-77
2022/07/06 05:00:34;;;;;;;5.13;4.60;;;;;;;;;;5030554;28;20029;-73
2022/07/06 05:03:00;;;;;;;7.20;4.47;;;;;;;;;;5032472;28;20053;-72
2022/07/06 05:05:26;;;;;;;7.22;4.90;;;;;;;;;;5032480;28;20030;-76
2022/07/06 05:08:05;;;;;;;;;;;;;;;;;;;;;
2022/07/06 05:10:31;;;;;;;7.50;4.13;;;;;;;;;;5026485;28;20467;-76
2022/07/06 05:12:57;;;;;;;7.63;3.97;;;;;;;;;;5032516;28;20080;-74
2022/07/06 05:15:24;;;;;;;5.70;4.50;;;;;;;;;;5031585;28;20064;-77
2022/07/06 05:17:50;;;;;;;8.05;4.00;;;;;;;;;;5026214;28;20096;-76
2022/07/06 05:20:16;;;;;;;6.03;4.40;;;;;;;;;;5026355;28;20031;-76
2022/07/06 05:22:42;;;;;;;7.53;3.80;;;;;;;;;;5030167;28;20502;-77
2022/07/06 05:25:08;;;;;;;6.15;4.47;;;;;;;;;;5031218;28;20032;-75
2022/07/06 05:27:34;;;;;;;7.30;4.18;;;;;;;;;;5030625;28;20069;-77
2022/07/06 05:30:00;;;;;;;5.82;4.30;;;;;;;;;;5031156;28;20075;-75
2022/07/06 05:32:27;;;;;;;4.93;4.00;;;;;;;;;;5030084;28;20033;-74
2022/07/06 05:34:53;;;;;;;6.70;4.50;;;;;;;;;;5030486;28;20112;-74
2022/07/06 05:37:19;;;;;;;5.53;4.18;;;;;;;;;;5014374;28;20083;-79
2022/07/06 05:39:46;;;;;;;7.53;4.15;;;;;;;;;;5016255;28;20060;-79
2022/07/06 05:42:13;;;;;;;7.68;4.05;;;;;;;;;;5046758;28;20044;-78
2022/07/06 05:44:39;;;;;;;5.88;4.35;;;;;;;;;;5031250;28;20067;-82
2022/07/06 05:52:35;;;;;;;5.07;3.70;;;;;;;;;;5031010;28;20449;-78
2022/07/06 05:55:01;;;;;;;4.43;4.00;;;;;;;;;;5026737;28;20032;-76
2022/07/06 05:57:27;;;;;;;8.68;3.55;;;;;;;;;;5011303;28;20083;-75
2022/07/06 05:59:53;;;;;;;5.57;3.47;;;;;;;;;;5032061;28;20044;-75
2022/07/06 06:02:19;;;;;;;5.22;3.50;;;;;;;;;;5027834;28;20553;-76
2022/07/06 06:04:46;;;;;;;3.90;3.50;;;;;;;;;;5028136;28;20167;-77
2022/07/06 06:07:12;;;;;;;8.90;3.70;;;;;;;;;;5029787;28;20017;-74
2022/07/06 06:09:38;;;;;;;4.95;3.70;;;;;;;;;;5031221;28;20126;-77
2022/07/06 06:12:04;;;;;;;4.18;3.78;;;;;;;;;;5014797;28;20036;-76
2022/07/06 06:14:33;;;;;;;5.20;3.90;;;;;;;;;;5017038;28;20411;-80
2022/07/06 06:16:59;;;;;;;6.30;3.90;;;;;;;;;;5014755;28;20359;-78
2022/07/06 06:19:25;;;;;;;5.03;3.75;;;;;;;;;;5031831;28;20022;-79
2022/07/06 06:21:52;;;;;;;4.30;3.50;;;;;;;;;;5020474;28;20044;-77
2022/07/06 06:24:18;;;;;;;4.93;3.20;;;;;;;;;;5017101;28;20537;-74
2022/07/06 06:26:44;;;;;;;3.70;3.30;;;;;;;;;;5034398;28;20156;-72
2022/07/06 06:29:10;;;;;;;6.82;3.60;;;;;;;;;;5037187;28;20051;-77
2022/07/06 06:31:37;;;;;;;4.47;3.17;;;;;;;;;;5017916;28;20036;-77
2022/07/06 06:34:03;;;;;;;5.47;3.20;;;;;;;;;;5026936;28;20021;-81
2022/07/06 06:36:29;;;;;;;6.25;3.60;;;;;;;;;;5017949;28;20056;-77
2022/07/06 06:38:55;;;;;;;4.15;3.50;;;;;;;;;;5031740;28;20024;-78
2022/07/06 06:41:21;;;;;;;4.88;3.00;;;;;;;;;;5035549;28;20114;-76
2022/07/06 06:43:47;;;;;;;6.50;3.13;;;;;;;;;;5034970;28;20590;-75
2022/07/06 06:46:13;;;;;;;5.82;3.22;;;;;;;;;;5034617;28;20099;-75
2022/07/06 06:48:39;;;;;;;8.70;3.47;;;;;;;;;;5035132;28;20084;-75
2022/07/06 06:51:05;;;;;;;4.90;3.35;;;;;;;;;;5035434;28;20055;-73
2022/07/06 06:53:31;;;;;;;4.95;3.03;;;;;;;;;;5034416;28;20052;-75
2022/07/06 06:55:57;;;;;;;8.68;3.22;;;;;;;;;;5034039;28;20364;-75
2022/07/06 06:58:23;;;;;;;4.80;3.10;;;;;;;;;;5018302;28;20392;-75
2022/07/06 07:00:49;;;;;;;5.68;3.30;;;;;;;;;;5046822;28;20108;-74
2022/07/06 07:03:15;;;;;;;3.40;3.10;;;;;;;;;;5034715;28;20025;-75
2022/07/06 07:05:41;;;;;;;3.45;3.10;;;;;;;;;;5034600;28;20021;-74
2022/07/06 07:08:07;;;;;;;2.80;2.60;;;;;;;;;;5034654;28;20041;-75
2022/07/06 07:10:33;;;;;;;3.55;3.10;;;;;;;;;;5044767;28;20094;-75
2022/07/06 07:12:59;;;;;;;3.95;3.10;;;;;;;;;;5034868;28;20045;-76
2022/07/06 07:15:26;;;;;;;4.00;3.20;;;;;;;;;;5031666;28;20026;-75
2022/07/06 07:17:52;;;;;;;4.28;3.10;;;;;;;;;;5023553;28;20030;-75
2022/07/06 07:20:18;;;;;;;4.53;3.00;;;;;;;;;;5040355;28;20100;-75
2022/07/06 07:22:44;;;;;;;3.50;3.10;;;;;;;;;;5034773;28;20022;-76
2022/07/06 07:25:10;;;;;;;5.13;3.33;;;;;;;;;;5032777;28;20037;-74
2022/07/06 07:27:36;;;;;;;5.05;2.60;;;;;;;;;;5034675;28;20026;-75
2022/07/06 07:30:03;;;;;;;4.10;3.15;;;;;;;;;;5034681;28;20045;-75
2022/07/06 07:32:29;;;;;;;6.32;3.25;;;;;;;;;;5018765;28;20458;-75
2022/07/06 07:34:55;;;;;;;2.83;2.30;;;;;;;;;;5033872;28;20049;-75
2022/07/06 07:37:21;;;;;;;3.13;2.60;;;;;;;;;;5034006;28;20163;-74
2022/07/06 07:39:47;;;;;;;7.75;3.30;;;;;;;;;;5033972;28;20036;-71
2022/07/06 07:42:13;;;;;;;4.82;3.25;;;;;;;;;;5035352;28;20049;-72
2022/07/06 07:44:40;;;;;;;5.25;3.30;;;;;;;;;;5034188;28;20095;-71
2022/07/06 07:47:06;;;;;;;3.40;3.05;;;;;;;;;;5033917;28;20029;-78
2022/07/06 07:49:33;;;;;;;4.80;3.00;;;;;;;;;;5034261;28;20030;-79
2022/07/06 07:51:59;;;;;;;8.90;3.30;;;;;;;;;;5034746;28;20048;-70
2022/07/06 07:54:25;;;;;;;4.22;3.17;;;;;;;;;;5034203;28;20463;-80
2022/07/06 07:56:59;;;;;;;3.88;2.78;;;;;;;;;;5033756;28;20463;-71
2022/07/06 07:59:28;;;;;;;3.53;2.50;;;;;;;;;;5022944;28;20064;-78
2022/07/06 08:02:05;;;;;;;2.83;2.50;;;;;;;;;;5016127;28;20040;-79
2022/07/06 08:04:31;;;;;;;6.03;2.70;;;;;;;;;;5023431;28;20029;-79
2022/07/06 08:06:57;;;;;;;4.03;2.70;;;;;;;;;;5034161;28;20032;-81
2022/07/06 08:09:29;;;;;;;3.63;2.70;;;;;;;;;;5033493;28;20025;-78
2022/07/06 08:11:56;;;;;;;3.08;2.67;;;;;;;;;;5014674;28;20030;-78
2022/07/06 08:14:23;;;;;;;4.70;2.67;;;;;;;;;;5025380;28;20021;-82
2022/07/06 08:16:49;;;;;;;4.70;2.75;;;;;;;;;;5033912;28;20434;-75
2022/07/06 08:19:36;;;;;;;3.15;2.80;;;;;;;;;;5022022;28;20021;-81
2022/07/06 08:22:06;;;;;;;5.15;2.72;;;;;;;;;;5013498;28;20033;-79
2022/07/06 08:24:33;;;;;;;5.18;2.83;;;;;;;;;;5033980;28;20021;-77
2022/07/06 08:26:59;;;;;;;4.45;2.80;;;;;;;;;;5033851;28;20108;-78
2022/07/06 08:29:25;;;;;;;11.02;3.20;;;;;;;;;;5033513;28;20029;-73
2022/07/06 08:32:18;;;;;;;;;;;;;;;;;;;;;
2022/07/06 08:34:45;;;;;;;7.57;2.70;;;;;;;;;;5026671;28;20037;-80
2022/07/06 08:37:11;;;;;;;4.90;2.97;;;;;;;;;;5033626;28;20478;-81
2022/07/06 08:39:37;;;;;;;4.65;2.70;;;;;;;;;;5035098;28;20029;-79
2022/07/06 08:42:03;;;;;;;4.47;2.63;;;;;;;;;;5031582;28;20033;-81
2022/07/06 08:44:30;;;;;;;3.78;2.67;;;;;;;;;;5033341;28;20022;-72
2022/07/06 08:46:58;;;;;;;4.85;2.70;;;;;;;;;;5031751;28;20548;-77
2022/07/06 08:49:25;;;;;;;5.25;3.00;;;;;;;;;;5033444;28;20471;-81
2022/07/06 08:51:52;;;;;;;5.22;2.65;;;;;;;;;;5030693;28;20075;-80
2022/07/06 08:54:19;;;;;;;5.45;2.63;;;;;;;;;;5031881;28;20026;-73
2022/07/06 08:56:46;;;;;;;5.32;2.97;;;;;;;;;;5031815;28;20027;-72
2022/07/06 08:59:12;;;;;;;4.97;2.60;;;;;;;;;;5033082;28;20491;-79
2022/07/06 09:01:39;;;;;;;6.82;2.97;;;;;;;;;;5032090;28;20052;-72
2022/07/06 09:07:09;;;;;;;5.72;3.55;;;;;;;;;;5035331;28;20020;-80
2022/07/06 09:09:37;;;;;;;5.05;3.20;;;;;;;;;;5011073;28;20104;-72
2022/07/06 09:12:03;;;;;;;5.78;2.80;;;;;;;;;;5026062;28;20055;-72
2022/07/06 09:14:30;;;;;;;3.40;2.53;;;;;;;;;;5026055;28;20032;-75
2022/07/06 09:17:09;;;;;;;4.65;2.70;;;;;;;;;;5028613;28;20029;-80
2022/07/06 09:19:36;;;;;;;4.63;3.22;;;;;;;;;;5047426;28;20056;-78
2022/07/06 09:22:02;;;;;;;7.82;3.30;;;;;;;;;;5028752;28;20041;-76
2022/07/06 09:24:28;;;;;;;7.55;2.83;;;;;;;;;;5015478;28;20115;-76
2022/07/06 09:26:58;;;;;;;3.70;2.50;;;;;;;;;;5029740;28;20021;-78
2022/07/06 09:29:31;;;;;;;7.03;2.50;;;;;;;;;;5012626;28;20028;-78
2022/07/06 09:32:01;;;;;;;5.90;2.42;;;;;;;;;;5032113;28;20045;-74
2022/07/06 09:34:48;;;;;;;3.65;2.50;;;;;;;;;;5013660;28;20037;-73
2022/07/06 09:37:15;;;;;;;5.78;2.50;;;;;;;;;;5008130;28;20036;-73
2022/07/06 09:39:43;;;;;;;7.60;3.53;;;;;;;;;;5029800;28;20026;-75
2022/07/06 09:42:12;;;;;;;10.73;3.97;;;;;;;;;;5030080;28;20041;-73
2022/07/06 09:44:39;;;;;;;6.75;2.80;;;;;;;;;;5014020;28;20040;-81
2022/07/06 09:47:07;;;;;;;7.60;3.30;;;;;;;;;;5030979;28;20025;-72
2022/07/06 09:49:34;;;;;;;5.85;2.50;;;;;;;;;;5012836;28;20376;-72
2022/07/06 09:52:01;;;;;;;4.88;2.58;;;;;;;;;;5020917;28;20033;-75
2022/07/06 09:54:27;;;;;;;11.70;3.78;;;;;;;;;;5030899;28;20100;-80
2022/07/06 09:56:54;;;;;;;4.45;2.95;;;;;;;;;;5009800;28;20482;-73
2022/07/06 09:59:22;;;;;;;6.85;3.30;;;;;;;;;;5033832;28;20029;-74
2022/07/06 10:01:51;;;;;;;11.80;4.35;;;;;;;;;;5034361;28;20033;-76
2022/07/06 10:04:19;;;;;;;6.82;3.55;;;;;;;;;;5033162;28;20036;-73
2022/07/06 10:06:46;;;;;;;9.27;3.22;;;;;;;;;;5023605;28;20383;-74
2022/07/06 10:09:13;;;;;;;7.80;2.60;;;;;;;;;;5021914;28;20041;-76
2022/07/06 10:11:50;;;;;;;5.95;3.15;;;;;;;;;;5034939;28;20033;-81
2022/07/06 10:14:52;;;;;;;7.57;2.92;;;;;;;;;;5018257;28;20021;-75
2022/07/06 10:17:18;;;;;;;5.30;2.67;;;;;;;;;;4974419;28;20030;-74
2022/07/06 10:19:44;;;;;;;6.32;2.97;;;;;;;;;;4973171;28;20554;-82
2022/07/06 10:22:12;;;;;;;6.28;2.92;;;;;;;;;;4973384;28;20039;-75
2022/07/06 10:24:43;;;;;;;6.35;2.85;;;;;;;;;;4973271;28;20043;-75
2022/07/06 10:27:10;;;;;;;10.50;4.63;;;;;;;;;;4973126;28;20109;-74
2022/07/06 10:29:36;;;;;;;4.93;2.95;;;;;;;;;;4970726;28;20069;-75
2022/07/06 10:32:02;;;;;;;18.92;3.70;;;;;;;;;;4960359;28;20034;-82
2022/07/06 10:34:29;;;;;;;9.35;3.20;;;;;;;;;;4972222;28;20159;-74
2022/07/06 10:36:55;;;;;;;5.88;2.50;;;;;;;;;;4974155;28;20030;-76
2022/07/06 10:42:38;;;;;;;10.10;2.83;;;;;;;;;;4972941;28;20080;-73
2022/07/06 10:45:04;;;;;;;9.52;3.38;;;;;;;;;;4988769;28;20032;-74
2022/07/06 10:47:30;;;;;;;4.97;3.40;;;;;;;;;;5015700;28;20033;-73
2022/07/06 10:50:00;;;;;;;16.80;3.38;;;;;;;;;;5036635;28;20068;-73
2022/07/06 10:52:46;;;;;;;12.07;3.60;;;;;;;;;;5031118;28;20034;-73
2022/07/06 10:55:30;;;;;;;9.57;4.00;;;;;;;;;;5037375;28;20030;-76
2022/07/06 10:57:56;;;;;;;8.00;2.50;;;;;;;;;;5017976;28;20017;-73
2022/07/06 11:00:23;;;;;;;4.82;2.50;;;;;;;;;;5028132;28;20100;-74
2022/07/06 11:02:49;;;;;;;5.55;2.78;;;;;;;;;;5031517;28;20040;-74
2022/07/06 11:05:41;;;;;;;6.60;2.45;;;;;;;;;;5034875;28;20102;-74
2022/07/06 11:08:10;;;;;;;6.05;2.70;;;;;;;;;;5023458;28;20044;-73
2022/07/06 11:10:48;;;;;;;3.92;2.47;;;;;;;;;;5033842;28;20075;-75
2022/07/06 11:13:28;;;;;;;14.05;2.70;;;;;;;;;;5033827;28;20021;-75
2022/07/06 11:16:04;;;;;;;5.13;2.80;;;;;;;;;;5015737;28;20029;-74
2022/07/06 11:18:39;;;;;;;3.17;2.30;;;;;;;;;;5034726;28;20109;-74
2022/07/06 11:21:22;;;;;;;3.38;2.58;;;;;;;;;;5034110;28;20034;-75
2022/07/06 11:23:50;;;;;;;5.30;2.70;;;;;;;;;;5034628;28;20025;-75
2022/07/06 11:26:17;;;;;;;11.82;3.03;;;;;;;;;;5034566;28;20072;-75
2022/07/06 11:28:45;;;;;;;4.38;2.60;;;;;;;;;;5033621;28;20071;-74
2022/07/06 11:31:11;;;;;;;7.90;2.60;;;;;;;;;;5034321;28;20056;-75
2022/07/06 11:33:37;;;;;;;3.55;2.47;;;;;;;;;;5034564;28;20038;-75
2022/07/06 11:36:13;;;;;;;6.90;2.65;;;;;;;;;;5033599;28;20025;-75
2022/07/06 11:38:40;;;;;;;3.85;2.50;;;;;;;;;;5014153;28;20061;-75
2022/07/06 11:41:06;;;;;;;4.85;2.70;;;;;;;;;;5026868;28;20025;-75
2022/07/06 11:43:32;;;;;;;5.70;2.72;;;;;;;;;;5031343;28;20395;-74
2022/07/06 11:45:58;;;;;;;3.10;2.50;;;;;;;;;;5032181;28;20025;-75
2022/07/06 11:48:24;;;;;;;5.35;2.60;;;;;;;;;;5032684;28;20029;-77
2022/07/06 11:51:04;;;;;;;4.00;2.60;;;;;;;;;;5033835;28;20099;-78
2022/07/06 11:53:30;;;;;;;6.53;2.95;;;;;;;;;;5033246;28;20079;-76
2022/07/06 11:56:02;;;;;;;7.40;2.75;;;;;;;;;;5033702;28;20033;-76
2022/07/06 11:58:29;;;;;;;5.18;2.35;;;;;;;;;;5034209;28;20071;-77
2022/07/06 12:01:08;;;;;;;4.57;2.70;;;;;;;;;;5033982;28;20026;-77
2022/07/06 12:03:35;;;;;;;5.05;2.90;;;;;;;;;;5032771;28;20056;-76
2022/07/06 12:06:12;;;;;;;7.28;3.00;;;;;;;;;;5015210;28;20496;-80
2022/07/06 12:08:45;;;;;;;3.92;2.72;;;;;;;;;;5013407;28;20469;-74
2022/07/06 12:11:17;;;;;;;4.60;2.80;;;;;;;;;;5033139;28;20052;-76
2022/07/06 12:13:43;;;;;;;7.60;2.88;;;;;;;;;;5032886;28;20128;-76
2022/07/06 12:16:10;;;;;;;4.97;2.58;;;;;;;;;;5033809;28;20083;-76
2022/07/06 12:18:37;;;;;;;4.18;3.03;;;;;;;;;;5033587;28;20375;-76
2022/07/06 12:21:03;;;;;;;5.93;2.75;;;;;;;;;;5032342;28;20057;-77
2022/07/06 12:23:39;;;;;;;4.18;2.50;;;;;;;;;;5034841;28;20021;-77
2022/07/06 12:26:05;;;;;;;3.92;2.45;;;;;;;;;;5044741;28;20032;-76
2022/07/06 12:28:31;;;;;;;4.07;2.50;;;;;;;;;;5012763;28;20038;-76
2022/07/06 12:30:57;;;;;;;7.00;2.45;;;;;;;;;;5032911;28;20436;-77
2022/07/06 12:33:23;;;;;;;3.75;2.58;;;;;;;;;;5033386;28;20018;-76
2022/07/06 12:35:49;;;;;;;7.82;2.60;;;;;;;;;;5031655;28;20541;-76
2022/07/06 12:38:22;;;;;;;4.38;2.70;;;;;;;;;;5021519;28;20036;-77
2022/07/06 12:40:48;;;;;;;6.50;2.90;;;;;;;;;;5033516;28;20112;-77
2022/07/06 12:43:14;;;;;;;5.93;2.78;;;;;;;;;;5032496;28;20034;-77
2022/07/06 12:45:42;;;;;;;10.40;3.60;;;;;;;;;;5032239;28;20104;-76
2022/07/06 12:48:08;;;;;;;4.43;2.70;;;;;;;;;;5032547;28;20029;-76
2022/07/06 12:50:36;;;;;;;8.18;3.50;;;;;;;;;;5033059;28;20026;-76
2022/07/06 12:53:03;;;;;;;4.35;2.85;;;;;;;;;;5034689;28;20136;-77
2022/07/06 12:55:30;;;;;;;3.75;2.65;;;;;;;;;;5019564;28;20032;-76
2022/07/06 12:57:57;;;;;;;11.48;2.83;;;;;;;;;;5028872;28;20034;-74
2022/07/06 13:00:23;;;;;;;5.80;3.05;;;;;;;;;;5031988;28;20022;-75
2022/07/06 13:02:54;;;;;;;3.22;2.65;;;;;;;;;;5039197;28;20036;-75
2022/07/06 13:05:30;;;;;;;6.05;2.92;;;;;;;;;;5043332;28;20022;-75
2022/07/06 13:07:58;;;;;;;4.97;3.03;;;;;;;;;;5040323;28;20021;-76
2022/07/06 13:10:25;;;;;;;9.23;2.95;;;;;;;;;;5034767;28;20025;-79
2022/07/06 13:12:51;;;;;;;5.13;2.80;;;;;;;;;;5033929;28;20068;-75
2022/07/06 13:15:17;;;;;;;11.63;3.08;;;;;;;;;;5030799;28;20144;-78
2022/07/06 13:17:44;;;;;;;5.47;2.70;;;;;;;;;;5031649;28;20022;-79
2022/07/06 13:20:11;;;;;;;3.50;2.55;;;;;;;;;;5016310;28;20558;-78
2022/07/06 13:22:38;;;;;;;5.97;2.92;;;;;;;;;;5015314;28;20487;-77
2022/07/06 13:25:04;;;;;;;7.40;2.90;;;;;;;;;;5035635;28;20532;-89
2022/07/06 13:27:30;;;;;;;10.10;2.65;;;;;;;;;;5014472;28;20033;-86
2022/07/06 13:29:56;;;;;;;8.63;2.70;;;;;;;;;;5033578;28;20098;-82
2022/07/06 13:32:23;;;;;;;4.40;2.53;;;;;;;;;;5020992;28;20022;-76
2022/07/06 13:34:49;;;;;;;7.20;2.55;;;;;;;;;;5032118;28;20034;-75
2022/07/06 13:37:15;;;;;;;5.53;3.08;;;;;;;;;;5031741;28;20053;-76
2022/07/06 13:39:41;;;;;;;7.20;2.88;;;;;;;;;;5031488;28;20108;-77
2022/07/06 13:42:08;;;;;;;2.92;2.53;;;;;;;;;;5014797;28;20033;-78
2022/07/06 13:44:34;;;;;;;8.75;2.58;;;;;;;;;;5030809;28;20048;-74
2022/07/06 13:47:01;;;;;;;3.90;2.50;;;;;;;;;;5031841;28;20026;-74
2022/07/06 13:49:27;;;;;;;5.95;2.60;;;;;;;;;;5031855;28;20502;-75
2022/07/06 13:51:54;;;;;;;3.65;2.20;;;;;;;;;;5015859;28;20053;-75
2022/07/06 13:54:24;;;;;;;3.30;2.15;;;;;;;;;;5013880;28;20444;-74
2022/07/06 13:56:50;;;;;;;4.55;2.10;;;;;;;;;;5017460;28;20389;-74
2022/07/06 13:59:16;;;;;;;6.15;2.00;;;;;;;;;;5015265;28;20558;-74
2022/07/06 14:01:43;;;;;;;5.05;2.10;;;;;;;;;;5033207;28;20049;-75
2022/07/06 14:04:09;;;;;;;7.18;2.40;;;;;;;;;;5046619;28;20022;-75
2022/07/06 14:06:35;;;;;;;3.10;2.03;;;;;;;;;;5029340;28;20037;-75
2022/07/06 14:09:01;;;;;;;3.90;2.03;;;;;;;;;;5031508;28;20025;-74
2022/07/06 14:11:27;;;;;;;4.93;2.10;;;;;;;;;;5031453;28;20029;-74
2022/07/06 14:13:54;;;;;;;2.88;1.98;;;;;;;;;;5020204;28;20037;-74
2022/07/06 14:16:20;;;;;;;4.10;1.77;;;;;;;;;;5031302;28;20056;-73
2022/07/06 14:18:46;;;;;;;3.28;1.80;;;;;;;;;;5035179;28;20036;-73
2022/07/06 14:21:12;;;;;;;2.83;1.50;;;;;;;;;;5017773;28;20471;-74
2022/07/06 14:23:38;;;;;;;4.43;1.63;;;;;;;;;;5044231;28;20393;-74
2022/07/06 14:26:04;;;;;;;4.15;1.90;;;;;;;;;;5031305;28;20033;-74
2022/07/06 14:28:30;;;;;;;9.40;2.08;;;;;;;;;;5030683;28;20111;-76
2022/07/06 14:30:57;;;;;;;14.65;2.30;;;;;;;;;;5031424;28;20100;-75
2022/07/06 14:33:23;;;;;;;6.88;1.88;;;;;;;;;;5030191;28;20022;-75
2022/07/06 14:35:53;;;;;;;4.03;1.70;;;;;;;;;;5033619;28;20479;-74
2022/07/06 14:38:20;;;;;;;4.32;1.83;;;;;;;;;;5031047;28;20026;-76
2022/07/06 14:40:48;;;;;;;5.10;2.20;;;;;;;;;;5014074;28;20022;-73
2022/07/06 14:43:14;;;;;;;2.28;1.70;;;;;;;;;;5031206;28;20026;-75
2022/07/06 14:45:41;;;;;;;3.15;1.90;;;;;;;;;;5042586;28;20087;-74
2022/07/06 14:48:29;;;;;;;7.18;1.90;;;;;;;;;;5015184;28;20572;-73
2022/07/06 14:50:57;;;;;;;3.00;1.60;;;;;;;;;;5025111;28;20540;-74
2022/07/06 14:53:23;;;;;;;3.40;1.70;;;;;;;;;;5036947;28;20045;-75
2022/07/06 14:55:49;;;;;;;2.63;1.92;;;;;;;;;;5025218;28;20060;-75
2022/07/06 14:58:18;;;;;;;3.80;1.90;;;;;;;;;;5035367;28;20024;-74
2022/07/06 15:00:51;;;;;;;4.00;2.00;;;;;;;;;;5017856;28;20044;-74
2022/07/06 15:03:17;;;;;;;2.03;1.85;;;;;;;;;;5034165;28;20752;-75